sensor_id;sensor_type;location;lat;lon;timestamp;P1;durP1;ratioP1;P2;durP2;ratioP2
77955;SDS011;67152;36.266;32.294;2023-02-17T00:01:25;4.45;;;2.35;;
77955;SDS011;67152;36.266;32.294;2023-02-17T00:03:59;5.63;;;2.58;;
77955;SDS011;67152;36.266;32.294;2023-02-17T00:06:27;4.18;;;2.33;;
77955;SDS011;67152;36.266;32.294;2023-02-17T00:08:55;4.82;;;2.83;;
77955;SDS011;67152;36.266;32.294;2023-02-17T00:11:23;8.52;;;3.80;;
77955;SDS011;67152;36.266;32.294;2023-02-17T00:13:50;7.57;;;3.58;;
77955;SDS011;67152;36.266;32.294;2023-02-17T00:16:18;6.53;;;2.85;;
77955;SDS011;67152;36.266;32.294;2023-02-17T00:18:50;7.47;;;3.30;;
77955;SDS011;67152;36.266;32.294;2023-02-17T00:21:19;4.32;;;2.15;;
77955;SDS011;67152;36.266;32.294;2023-02-17T00:23:48;4.55;;;2.28;;
77955;SDS011;67152;36.266;32.294;2023-02-17T00:26:17;5.20;;;2.08;;
77955;SDS011;67152;36.266;32.294;2023-02-17T00:28:45;5.47;;;2.60;;
77955;SDS011;67152;36.266;32.294;2023-02-17T00:31:13;3.47;;;1.92;;
77955;SDS011;67152;36.266;32.294;2023-02-17T00:33:41;9.38;;;3.97;;
77955;SDS011;67152;36.266;32.294;2023-02-17T00:36:12;7.78;;;2.80;;
77955;SDS011;67152;36.266;32.294;2023-02-17T00:38:42;8.20;;;3.60;;
77955;SDS011;67152;36.266;32.294;2023-02-17T00:41:09;5.72;;;2.63;;
77955;SDS011;67152;36.266;32.294;2023-02-17T00:43:36;2.85;;;1.60;;
77955;SDS011;67152;36.266;32.294;2023-02-17T00:46:03;8.48;;;2.80;;
77955;SDS011;67152;36.266;32.294;2023-02-17T00:48:30;4.97;;;2.40;;
77955;SDS011;67152;36.266;32.294;2023-02-17T00:50:57;3.47;;;1.50;;
77955;SDS011;67152;36.266;32.294;2023-02-17T00:53:24;4.03;;;1.88;;
77955;SDS011;67152;36.266;32.294;2023-02-17T00:55:51;5.50;;;1.97;;
77955;SDS011;67152;36.266;32.294;2023-02-17T00:58:18;5.18;;;2.50;;
77955;SDS011;67152;36.266;32.294;2023-02-17T01:00:44;6.45;;;1.95;;
77955;SDS011;67152;36.266;32.294;2023-02-17T01:03:11;3.88;;;1.88;;
77955;SDS011;67152;36.266;32.294;2023-02-17T01:05:39;3.80;;;1.83;;
77955;SDS011;67152;36.266;32.294;2023-02-17T01:08:11;3.35;;;1.35;;
77955;SDS011;67152;36.266;32.294;2023-02-17T01:10:38;3.13;;;1.63;;
77955;SDS011;67152;36.266;32.294;2023-02-17T01:13:06;9.40;;;2.78;;
77955;SDS011;67152;36.266;32.294;2023-02-17T01:15:37;4.60;;;2.53;;
77955;SDS011;67152;36.266;32.294;2023-02-17T01:18:04;4.85;;;2.30;;
77955;SDS011;67152;36.266;32.294;2023-02-17T01:20:35;8.05;;;2.47;;
77955;SDS011;67152;36.266;32.294;2023-02-17T01:23:03;5.47;;;2.60;;
77955;SDS011;67152;36.266;32.294;2023-02-17T01:25:30;7.40;;;3.17;;
77955;SDS011;67152;36.266;32.294;2023-02-17T01:27:57;4.13;;;2.42;;
77955;SDS011;67152;36.266;32.294;2023-02-17T01:30:24;9.27;;;3.60;;
77955;SDS011;67152;36.266;32.294;2023-02-17T01:32:50;5.18;;;2.75;;
77955;SDS011;67152;36.266;32.294;2023-02-17T01:35:17;9.65;;;4.07;;
77955;SDS011;67152;36.266;32.294;2023-02-17T01:37:44;8.00;;;4.00;;
77955;SDS011;67152;36.266;32.294;2023-02-17T01:40:14;5.35;;;2.65;;
77955;SDS011;67152;36.266;32.294;2023-02-17T01:42:42;8.00;;;3.15;;
77955;SDS011;67152;36.266;32.294;2023-02-17T01:47:53;6.32;;;2.75;;
77955;SDS011;67152;36.266;32.294;2023-02-17T01:50:25;7.03;;;2.47;;
77955;SDS011;67152;36.266;32.294;2023-02-17T01:52:56;3.97;;;2.17;;
77955;SDS011;67152;36.266;32.294;2023-02-17T01:55:23;4.82;;;2.85;;
77955;SDS011;67152;36.266;32.294;2023-02-17T01:57:52;12.55;;;4.82;;
77955;SDS011;67152;36.266;32.294;2023-02-17T02:00:20;9.45;;;4.63;;
77955;SDS011;67152;36.266;32.294;2023-02-17T02:05:15;7.07;;;3.17;;
77955;SDS011;67152;36.266;32.294;2023-02-17T02:07:43;2.55;;;1.65;;
77955;SDS011;67152;36.266;32.294;2023-02-17T02:10:12;6.80;;;2.58;;
77955;SDS011;67152;36.266;32.294;2023-02-17T02:12:42;7.57;;;3.17;;
77955;SDS011;67152;36.266;32.294;2023-02-17T02:34:37;5.57;;;2.38;;
77955;SDS011;67152;36.266;32.294;2023-02-17T02:37:16;6.75;;;2.90;;
77955;SDS011;67152;36.266;32.294;2023-02-17T02:39:45;5.38;;;2.80;;
77955;SDS011;67152;36.266;32.294;2023-02-17T02:42:15;6.60;;;2.70;;
77955;SDS011;67152;36.266;32.294;2023-02-17T02:44:43;10.57;;;3.33;;
77955;SDS011;67152;36.266;32.294;2023-02-17T02:50:07;6.15;;;3.70;;
77955;SDS011;67152;36.266;32.294;2023-02-17T02:52:57;6.88;;;3.50;;
77955;SDS011;67152;36.266;32.294;2023-02-17T02:55:33;13.45;;;4.25;;
77955;SDS011;67152;36.266;32.294;2023-02-17T03:03:21;8.82;;;3.45;;
77955;SDS011;67152;36.266;32.294;2023-02-17T03:06:21;7.38;;;3.08;;
77955;SDS011;67152;36.266;32.294;2023-02-17T03:08:57;7.78;;;2.65;;
77955;SDS011;67152;36.266;32.294;2023-02-17T03:11:27;5.53;;;2.40;;
77955;SDS011;67152;36.266;32.294;2023-02-17T03:16:38;4.63;;;2.50;;
77955;SDS011;67152;36.266;32.294;2023-02-17T03:19:06;6.38;;;2.67;;
77955;SDS011;67152;36.266;32.294;2023-02-17T03:21:35;6.05;;;3.03;;
77955;SDS011;67152;36.266;32.294;2023-02-17T03:24:23;5.10;;;2.38;;
77955;SDS011;67152;36.266;32.294;2023-02-17T03:26:50;9.07;;;3.42;;
77955;SDS011;67152;36.266;32.294;2023-02-17T03:29:17;5.32;;;3.28;;
77955;SDS011;67152;36.266;32.294;2023-02-17T03:31:44;6.23;;;2.63;;
77955;SDS011;67152;36.266;32.294;2023-02-17T03:34:11;9.68;;;3.20;;
77955;SDS011;67152;36.266;32.294;2023-02-17T03:36:37;9.45;;;3.70;;
77955;SDS011;67152;36.266;32.294;2023-02-17T03:39:04;6.10;;;3.60;;
77955;SDS011;67152;36.266;32.294;2023-02-17T03:41:31;4.20;;;3.00;;
77955;SDS011;67152;36.266;32.294;2023-02-17T03:43:58;6.00;;;1.48;;
77955;SDS011;67152;36.266;32.294;2023-02-17T03:46:24;7.18;;;3.67;;
77955;SDS011;67152;36.266;32.294;2023-02-17T03:48:51;5.30;;;2.83;;
77955;SDS011;67152;36.266;32.294;2023-02-17T03:51:19;11.90;;;4.82;;
77955;SDS011;67152;36.266;32.294;2023-02-17T03:53:48;8.95;;;4.05;;
77955;SDS011;67152;36.266;32.294;2023-02-17T03:56:15;8.93;;;4.50;;
77955;SDS011;67152;36.266;32.294;2023-02-17T03:58:42;9.93;;;4.57;;
77955;SDS011;67152;36.266;32.294;2023-02-17T04:01:10;12.25;;;4.95;;
77955;SDS011;67152;36.266;32.294;2023-02-17T04:03:38;5.15;;;2.30;;
77955;SDS011;67152;36.266;32.294;2023-02-17T04:06:06;3.05;;;1.73;;
77955;SDS011;67152;36.266;32.294;2023-02-17T04:08:33;10.35;;;4.03;;
77955;SDS011;67152;36.266;32.294;2023-02-17T04:11:01;11.55;;;4.80;;
77955;SDS011;67152;36.266;32.294;2023-02-17T04:13:29;14.07;;;3.85;;
77955;SDS011;67152;36.266;32.294;2023-02-17T04:15:56;22.23;;;3.58;;
77955;SDS011;67152;36.266;32.294;2023-02-17T04:18:23;10.02;;;4.30;;
77955;SDS011;67152;36.266;32.294;2023-02-17T04:20:50;8.02;;;2.70;;
77955;SDS011;67152;36.266;32.294;2023-02-17T04:23:17;8.85;;;3.72;;
77955;SDS011;67152;36.266;32.294;2023-02-17T04:25:44;7.13;;;3.97;;
77955;SDS011;67152;36.266;32.294;2023-02-17T04:28:11;7.60;;;3.27;;
77955;SDS011;67152;36.266;32.294;2023-02-17T04:33:07;10.60;;;5.07;;
77955;SDS011;67152;36.266;32.294;2023-02-17T04:35:34;8.68;;;4.25;;
77955;SDS011;67152;36.266;32.294;2023-02-17T04:38:00;5.45;;;3.17;;
77955;SDS011;67152;36.266;32.294;2023-02-17T04:40:27;9.63;;;4.47;;
77955;SDS011;67152;36.266;32.294;2023-02-17T04:42:54;12.38;;;6.07;;
77955;SDS011;67152;36.266;32.294;2023-02-17T04:45:21;12.35;;;6.68;;
77955;SDS011;67152;36.266;32.294;2023-02-17T04:47:48;21.83;;;8.18;;
77955;SDS011;67152;36.266;32.294;2023-02-17T04:50:15;23.48;;;10.57;;
77955;SDS011;67152;36.266;32.294;2023-02-17T04:52:42;24.05;;;8.20;;
77955;SDS011;67152;36.266;32.294;2023-02-17T04:55:09;22.70;;;7.57;;
77955;SDS011;67152;36.266;32.294;2023-02-17T04:57:36;17.40;;;7.03;;
77955;SDS011;67152;36.266;32.294;2023-02-17T05:00:04;10.05;;;4.72;;
77955;SDS011;67152;36.266;32.294;2023-02-17T05:02:32;12.13;;;5.80;;
77955;SDS011;67152;36.266;32.294;2023-02-17T05:04:59;20.15;;;5.57;;
77955;SDS011;67152;36.266;32.294;2023-02-17T05:07:25;14.77;;;5.45;;
77955;SDS011;67152;36.266;32.294;2023-02-17T05:09:52;8.70;;;5.15;;
77955;SDS011;67152;36.266;32.294;2023-02-17T05:12:19;18.10;;;5.93;;
77955;SDS011;67152;36.266;32.294;2023-02-17T05:14:45;11.90;;;5.82;;
77955;SDS011;67152;36.266;32.294;2023-02-17T05:17:12;9.40;;;4.22;;
77955;SDS011;67152;36.266;32.294;2023-02-17T05:19:39;20.73;;;5.28;;
77955;SDS011;67152;36.266;32.294;2023-02-17T05:22:06;12.65;;;6.13;;
77955;SDS011;67152;36.266;32.294;2023-02-17T05:24:32;14.25;;;5.60;;
77955;SDS011;67152;36.266;32.294;2023-02-17T05:26:59;12.82;;;5.88;;
77955;SDS011;67152;36.266;32.294;2023-02-17T05:29:26;17.90;;;6.82;;
77955;SDS011;67152;36.266;32.294;2023-02-17T05:31:53;24.17;;;7.05;;
77955;SDS011;67152;36.266;32.294;2023-02-17T05:34:19;9.00;;;5.25;;
77955;SDS011;67152;36.266;32.294;2023-02-17T05:36:46;8.93;;;5.00;;
77955;SDS011;67152;36.266;32.294;2023-02-17T05:39:13;18.92;;;8.07;;
77955;SDS011;67152;36.266;32.294;2023-02-17T05:41:40;14.02;;;6.50;;
77955;SDS011;67152;36.266;32.294;2023-02-17T05:44:06;17.35;;;9.60;;
77955;SDS011;67152;36.266;32.294;2023-02-17T05:46:33;28.10;;;12.35;;
77955;SDS011;67152;36.266;32.294;2023-02-17T05:49:00;22.05;;;7.72;;
77955;SDS011;67152;36.266;32.294;2023-02-17T05:51:26;13.43;;;5.05;;
77955;SDS011;67152;36.266;32.294;2023-02-17T05:53:53;15.60;;;6.63;;
77955;SDS011;67152;36.266;32.294;2023-02-17T05:56:20;25.27;;;8.38;;
77955;SDS011;67152;36.266;32.294;2023-02-17T05:58:47;23.42;;;7.40;;
77955;SDS011;67152;36.266;32.294;2023-02-17T06:01:14;19.27;;;5.35;;
77955;SDS011;67152;36.266;32.294;2023-02-17T06:03:41;19.92;;;6.90;;
77955;SDS011;67152;36.266;32.294;2023-02-17T06:06:08;23.48;;;7.57;;
77955;SDS011;67152;36.266;32.294;2023-02-17T06:08:34;16.77;;;7.40;;
77955;SDS011;67152;36.266;32.294;2023-02-17T06:11:02;15.70;;;5.68;;
77955;SDS011;67152;36.266;32.294;2023-02-17T06:13:29;20.60;;;7.60;;
77955;SDS011;67152;36.266;32.294;2023-02-17T06:15:56;33.77;;;11.27;;
77955;SDS011;67152;36.266;32.294;2023-02-17T06:18:23;37.70;;;16.55;;
77955;SDS011;67152;36.266;32.294;2023-02-17T06:20:49;32.00;;;15.67;;
77955;SDS011;67152;36.266;32.294;2023-02-17T06:23:16;35.83;;;13.18;;
77955;SDS011;67152;36.266;32.294;2023-02-17T06:25:43;32.87;;;8.40;;
77955;SDS011;67152;36.266;32.294;2023-02-17T06:28:10;24.52;;;7.80;;
77955;SDS011;67152;36.266;32.294;2023-02-17T06:35:01;33.05;;;10.82;;
77955;SDS011;67152;36.266;32.294;2023-02-17T06:37:29;21.85;;;10.75;;
77955;SDS011;67152;36.266;32.294;2023-02-17T06:39:55;32.88;;;11.30;;
77955;SDS011;67152;36.266;32.294;2023-02-17T06:42:22;19.20;;;10.07;;
77955;SDS011;67152;36.266;32.294;2023-02-17T06:47:16;35.67;;;14.13;;
77955;SDS011;67152;36.266;32.294;2023-02-17T06:49:43;37.28;;;11.88;;
77955;SDS011;67152;36.266;32.294;2023-02-17T06:52:10;21.93;;;12.33;;
77955;SDS011;67152;36.266;32.294;2023-02-17T06:54:37;21.77;;;9.85;;
77955;SDS011;67152;36.266;32.294;2023-02-17T06:57:03;20.90;;;9.47;;
77955;SDS011;67152;36.266;32.294;2023-02-17T06:59:31;16.03;;;8.30;;
77955;SDS011;67152;36.266;32.294;2023-02-17T07:01:58;20.38;;;7.20;;
77955;SDS011;67152;36.266;32.294;2023-02-17T07:04:25;20.77;;;9.77;;
77955;SDS011;67152;36.266;32.294;2023-02-17T07:06:52;22.85;;;8.57;;
77955;SDS011;67152;36.266;32.294;2023-02-17T07:09:19;28.83;;;9.63;;
77955;SDS011;67152;36.266;32.294;2023-02-17T07:11:46;25.48;;;8.68;;
77955;SDS011;67152;36.266;32.294;2023-02-17T07:14:13;30.23;;;8.77;;
77955;SDS011;67152;36.266;32.294;2023-02-17T07:16:40;21.67;;;8.33;;
77955;SDS011;67152;36.266;32.294;2023-02-17T07:19:06;17.03;;;8.27;;
77955;SDS011;67152;36.266;32.294;2023-02-17T07:21:33;17.30;;;8.20;;
77955;SDS011;67152;36.266;32.294;2023-02-17T07:24:00;19.05;;;7.68;;
77955;SDS011;67152;36.266;32.294;2023-02-17T07:26:27;23.63;;;7.93;;
77955;SDS011;67152;36.266;32.294;2023-02-17T07:28:54;22.85;;;6.90;;
77955;SDS011;67152;36.266;32.294;2023-02-17T07:31:21;19.38;;;4.68;;
77955;SDS011;67152;36.266;32.294;2023-02-17T07:33:47;15.50;;;6.20;;
77955;SDS011;67152;36.266;32.294;2023-02-17T07:36:15;15.48;;;5.28;;
77955;SDS011;67152;36.266;32.294;2023-02-17T07:38:43;11.00;;;3.85;;
77955;SDS011;67152;36.266;32.294;2023-02-17T07:41:14;10.15;;;3.72;;
77955;SDS011;67152;36.266;32.294;2023-02-17T07:43:44;11.50;;;5.10;;
77955;SDS011;67152;36.266;32.294;2023-02-17T07:46:11;10.48;;;4.55;;
77955;SDS011;67152;36.266;32.294;2023-02-17T07:48:38;18.60;;;5.25;;
77955;SDS011;67152;36.266;32.294;2023-02-17T07:51:11;18.70;;;5.20;;
77955;SDS011;67152;36.266;32.294;2023-02-17T07:53:42;10.57;;;3.88;;
77955;SDS011;67152;36.266;32.294;2023-02-17T07:56:10;6.15;;;3.42;;
77955;SDS011;67152;36.266;32.294;2023-02-17T07:58:38;5.78;;;2.85;;
77955;SDS011;67152;36.266;32.294;2023-02-17T08:01:07;3.10;;;2.30;;
77955;SDS011;67152;36.266;32.294;2023-02-17T08:03:36;6.35;;;3.25;;
77955;SDS011;67152;36.266;32.294;2023-02-17T08:06:03;6.68;;;1.90;;
77955;SDS011;67152;36.266;32.294;2023-02-17T08:08:30;3.55;;;1.85;;
77955;SDS011;67152;36.266;32.294;2023-02-17T08:11:15;5.00;;;2.03;;
77955;SDS011;67152;36.266;32.294;2023-02-17T08:14:00;4.53;;;3.05;;
77955;SDS011;67152;36.266;32.294;2023-02-17T08:16:28;14.70;;;2.40;;
77955;SDS011;67152;36.266;32.294;2023-02-17T08:18:55;3.63;;;1.92;;
77955;SDS011;67152;36.266;32.294;2023-02-17T08:21:23;4.75;;;2.30;;
77955;SDS011;67152;36.266;32.294;2023-02-17T08:23:50;4.68;;;1.92;;
77955;SDS011;67152;36.266;32.294;2023-02-17T08:29:04;3.85;;;1.90;;
77955;SDS011;67152;36.266;32.294;2023-02-17T08:31:31;3.80;;;1.90;;
77955;SDS011;67152;36.266;32.294;2023-02-17T08:34:00;5.22;;;1.92;;
77955;SDS011;67152;36.266;32.294;2023-02-17T08:36:28;5.50;;;1.90;;
77955;SDS011;67152;36.266;32.294;2023-02-17T08:38:58;7.68;;;2.40;;
77955;SDS011;67152;36.266;32.294;2023-02-17T08:41:28;2.30;;;1.52;;
77955;SDS011;67152;36.266;32.294;2023-02-17T08:43:57;4.65;;;2.00;;
77955;SDS011;67152;36.266;32.294;2023-02-17T08:46:26;6.43;;;2.80;;
77955;SDS011;67152;36.266;32.294;2023-02-17T08:48:54;7.85;;;2.80;;
77955;SDS011;67152;36.266;32.294;2023-02-17T08:51:22;5.22;;;2.90;;
77955;SDS011;67152;36.266;32.294;2023-02-17T08:53:53;28.45;;;2.80;;
77955;SDS011;67152;36.266;32.294;2023-02-17T08:56:22;5.13;;;2.35;;
77955;SDS011;67152;36.266;32.294;2023-02-17T08:58:52;6.97;;;2.47;;
77955;SDS011;67152;36.266;32.294;2023-02-17T09:01:20;9.77;;;3.05;;
77955;SDS011;67152;36.266;32.294;2023-02-17T09:03:49;4.30;;;2.25;;
77955;SDS011;67152;36.266;32.294;2023-02-17T09:06:17;4.95;;;1.90;;
77955;SDS011;67152;36.266;32.294;2023-02-17T09:08:44;5.53;;;2.33;;
77955;SDS011;67152;36.266;32.294;2023-02-17T09:11:11;5.13;;;2.22;;
77955;SDS011;67152;36.266;32.294;2023-02-17T09:13:42;5.65;;;2.35;;
77955;SDS011;67152;36.266;32.294;2023-02-17T09:16:09;3.40;;;1.67;;
77955;SDS011;67152;36.266;32.294;2023-02-17T09:18:37;4.40;;;2.20;;
77955;SDS011;67152;36.266;32.294;2023-02-17T09:21:08;2.50;;;1.70;;
77955;SDS011;67152;36.266;32.294;2023-02-17T09:23:37;5.03;;;2.10;;
77955;SDS011;67152;36.266;32.294;2023-02-17T09:26:06;4.88;;;2.28;;
77955;SDS011;67152;36.266;32.294;2023-02-17T09:28:35;2.83;;;1.88;;
77955;SDS011;67152;36.266;32.294;2023-02-17T09:33:38;3.58;;;1.90;;
77955;SDS011;67152;36.266;32.294;2023-02-17T09:36:08;5.43;;;2.00;;
77955;SDS011;67152;36.266;32.294;2023-02-17T09:38:37;5.00;;;2.22;;
77955;SDS011;67152;36.266;32.294;2023-02-17T09:41:21;4.90;;;1.90;;
77955;SDS011;67152;36.266;32.294;2023-02-17T09:43:51;4.50;;;2.00;;
77955;SDS011;67152;36.266;32.294;2023-02-17T09:48:56;6.00;;;2.05;;
77955;SDS011;67152;36.266;32.294;2023-02-17T09:51:50;7.22;;;2.08;;
77955;SDS011;67152;36.266;32.294;2023-02-17T09:56:57;3.92;;;1.95;;
77955;SDS011;67152;36.266;32.294;2023-02-17T10:01:59;3.72;;;2.00;;
77955;SDS011;67152;36.266;32.294;2023-02-17T10:04:30;3.90;;;2.08;;
77955;SDS011;67152;36.266;32.294;2023-02-17T10:07:04;2.88;;;2.03;;
77955;SDS011;67152;36.266;32.294;2023-02-17T10:09:37;3.78;;;2.13;;
77955;SDS011;67152;36.266;32.294;2023-02-17T10:12:16;16.95;;;2.50;;
77955;SDS011;67152;36.266;32.294;2023-02-17T10:14:50;12.70;;;2.08;;
77955;SDS011;67152;36.266;32.294;2023-02-17T10:20:15;28.90;;;3.35;;
77955;SDS011;67152;36.266;32.294;2023-02-17T10:23:09;3.17;;;2.03;;
77955;SDS011;67152;36.266;32.294;2023-02-17T10:28:38;5.75;;;2.35;;
77955;SDS011;67152;36.266;32.294;2023-02-17T10:34:10;17.42;;;5.68;;
77955;SDS011;67152;36.266;32.294;2023-02-17T10:37:00;13.80;;;5.50;;
77955;SDS011;67152;36.266;32.294;2023-02-17T10:42:27;21.38;;;6.63;;
77955;SDS011;67152;36.266;32.294;2023-02-17T10:44:59;15.73;;;5.60;;
77955;SDS011;67152;36.266;32.294;2023-02-17T10:47:31;14.18;;;5.10;;
77955;SDS011;67152;36.266;32.294;2023-02-17T10:50:01;13.63;;;4.65;;
77955;SDS011;67152;36.266;32.294;2023-02-17T10:52:35;9.48;;;2.40;;
77955;SDS011;67152;36.266;32.294;2023-02-17T11:00:44;12.07;;;2.22;;
77955;SDS011;67152;36.266;32.294;2023-02-17T11:03:23;10.15;;;2.40;;
77955;SDS011;67152;36.266;32.294;2023-02-17T11:05:56;16.92;;;2.60;;
77955;SDS011;67152;36.266;32.294;2023-02-17T11:16:47;5.88;;;2.40;;
77955;SDS011;67152;36.266;32.294;2023-02-17T11:19:27;4.63;;;2.20;;
77955;SDS011;67152;36.266;32.294;2023-02-17T11:21:59;5.00;;;2.60;;
77955;SDS011;67152;36.266;32.294;2023-02-17T11:24:31;6.88;;;2.58;;
77955;SDS011;67152;36.266;32.294;2023-02-17T11:27:03;6.57;;;2.40;;
77955;SDS011;67152;36.266;32.294;2023-02-17T11:29:34;8.25;;;2.58;;
77955;SDS011;67152;36.266;32.294;2023-02-17T11:32:02;7.03;;;2.58;;
77955;SDS011;67152;36.266;32.294;2023-02-17T11:34:34;8.30;;;2.72;;
77955;SDS011;67152;36.266;32.294;2023-02-17T11:42:19;12.55;;;2.90;;
77955;SDS011;67152;36.266;32.294;2023-02-17T11:44:47;4.00;;;2.20;;
77955;SDS011;67152;36.266;32.294;2023-02-17T11:57:44;12.23;;;2.28;;
77955;SDS011;67152;36.266;32.294;2023-02-17T12:08:53;5.95;;;2.40;;
77955;SDS011;67152;36.266;32.294;2023-02-17T12:11:39;9.13;;;3.75;;
77955;SDS011;67152;36.266;32.294;2023-02-17T12:23:23;7.70;;;2.53;;
77955;SDS011;67152;36.266;32.294;2023-02-17T12:31:20;6.47;;;2.38;;
77955;SDS011;67152;36.266;32.294;2023-02-17T12:34:06;4.93;;;2.50;;
77955;SDS011;67152;36.266;32.294;2023-02-17T12:36:43;5.88;;;2.47;;
77955;SDS011;67152;36.266;32.294;2023-02-17T12:41:52;5.88;;;2.58;;
77955;SDS011;67152;36.266;32.294;2023-02-17T12:44:34;4.53;;;1.90;;
77955;SDS011;67152;36.266;32.294;2023-02-17T12:47:14;12.90;;;2.60;;
77955;SDS011;67152;36.266;32.294;2023-02-17T12:49:58;4.13;;;2.33;;
77955;SDS011;67152;36.266;32.294;2023-02-17T12:52:47;5.65;;;2.30;;
77955;SDS011;67152;36.266;32.294;2023-02-17T12:55:25;4.78;;;2.15;;
77955;SDS011;67152;36.266;32.294;2023-02-17T12:58:18;25.67;;;2.80;;
77955;SDS011;67152;36.266;32.294;2023-02-17T13:03:32;6.05;;;2.17;;
77955;SDS011;67152;36.266;32.294;2023-02-17T13:08:52;5.38;;;2.40;;
77955;SDS011;67152;36.266;32.294;2023-02-17T13:11:30;4.78;;;2.20;;
77955;SDS011;67152;36.266;32.294;2023-02-17T13:14:09;5.30;;;1.88;;
77955;SDS011;67152;36.266;32.294;2023-02-17T13:16:55;3.13;;;1.85;;
77955;SDS011;67152;36.266;32.294;2023-02-17T13:19:28;2.78;;;2.03;;
77955;SDS011;67152;36.266;32.294;2023-02-17T13:21:57;5.20;;;2.00;;
77955;SDS011;67152;36.266;32.294;2023-02-17T13:27:18;9.68;;;2.58;;
77955;SDS011;67152;36.266;32.294;2023-02-17T13:30:00;6.95;;;2.58;;
77955;SDS011;67152;36.266;32.294;2023-02-17T13:32:30;5.40;;;2.55;;
77955;SDS011;67152;36.266;32.294;2023-02-17T13:35:03;10.80;;;2.50;;
77955;SDS011;67152;36.266;32.294;2023-02-17T13:37:40;5.45;;;2.17;;
77955;SDS011;67152;36.266;32.294;2023-02-17T13:42:46;8.90;;;2.50;;
77955;SDS011;67152;36.266;32.294;2023-02-17T13:45:27;4.63;;;1.92;;
77955;SDS011;67152;36.266;32.294;2023-02-17T13:48:14;7.88;;;2.30;;
77955;SDS011;67152;36.266;32.294;2023-02-17T13:50:52;9.10;;;2.47;;
77955;SDS011;67152;36.266;32.294;2023-02-17T13:53:31;14.55;;;2.92;;
77955;SDS011;67152;36.266;32.294;2023-02-17T13:56:10;12.02;;;2.70;;
77955;SDS011;67152;36.266;32.294;2023-02-17T13:58:47;8.10;;;2.30;;
77955;SDS011;67152;36.266;32.294;2023-02-17T14:01:15;10.43;;;2.30;;
77955;SDS011;67152;36.266;32.294;2023-02-17T14:09:28;14.85;;;6.78;;
77955;SDS011;67152;36.266;32.294;2023-02-17T14:11:57;7.30;;;3.53;;
77955;SDS011;67152;36.266;32.294;2023-02-17T14:14:34;8.07;;;2.92;;
77955;SDS011;67152;36.266;32.294;2023-02-17T14:17:14;7.85;;;3.22;;
77955;SDS011;67152;36.266;32.294;2023-02-17T14:20:01;10.27;;;3.38;;
77955;SDS011;67152;36.266;32.294;2023-02-17T14:22:29;7.90;;;2.85;;
77955;SDS011;67152;36.266;32.294;2023-02-17T14:25:03;7.68;;;2.85;;
77955;SDS011;67152;36.266;32.294;2023-02-17T14:27:53;7.75;;;2.65;;
77955;SDS011;67152;36.266;32.294;2023-02-17T14:30:34;12.18;;;3.33;;
77955;SDS011;67152;36.266;32.294;2023-02-17T14:35:54;6.03;;;2.70;;
77955;SDS011;67152;36.266;32.294;2023-02-17T14:38:27;4.10;;;2.15;;
77955;SDS011;67152;36.266;32.294;2023-02-17T14:40:57;3.75;;;2.10;;
77955;SDS011;67152;36.266;32.294;2023-02-17T14:43:26;8.68;;;3.22;;
77955;SDS011;67152;36.266;32.294;2023-02-17T14:45:53;4.43;;;2.10;;
77955;SDS011;67152;36.266;32.294;2023-02-17T14:48:20;4.93;;;2.35;;
77955;SDS011;67152;36.266;32.294;2023-02-17T14:50:47;12.70;;;2.20;;
77955;SDS011;67152;36.266;32.294;2023-02-17T14:53:28;9.13;;;3.92;;
77955;SDS011;67152;36.266;32.294;2023-02-17T14:56:14;26.13;;;7.20;;
77955;SDS011;67152;36.266;32.294;2023-02-17T14:58:54;25.75;;;17.23;;
77955;SDS011;67152;36.266;32.294;2023-02-17T15:01:23;16.20;;;7.80;;
77955;SDS011;67152;36.266;32.294;2023-02-17T15:04:17;9.43;;;4.50;;
77955;SDS011;67152;36.266;32.294;2023-02-17T15:06:45;8.23;;;4.35;;
77955;SDS011;67152;36.266;32.294;2023-02-17T15:09:18;9.68;;;5.18;;
77955;SDS011;67152;36.266;32.294;2023-02-17T15:11:48;13.10;;;4.05;;
77955;SDS011;67152;36.266;32.294;2023-02-17T15:14:16;4.70;;;2.38;;
77955;SDS011;67152;36.266;32.294;2023-02-17T15:16:46;6.80;;;2.58;;
77955;SDS011;67152;36.266;32.294;2023-02-17T15:19:14;7.05;;;1.92;;
77955;SDS011;67152;36.266;32.294;2023-02-17T15:21:46;235.68;;;11.23;;
77955;SDS011;67152;36.266;32.294;2023-02-17T15:24:27;91.03;;;31.02;;
77955;SDS011;67152;36.266;32.294;2023-02-17T15:26:55;55.90;;;24.63;;
77955;SDS011;67152;36.266;32.294;2023-02-17T15:29:23;35.58;;;18.38;;
77955;SDS011;67152;36.266;32.294;2023-02-17T15:31:52;34.92;;;18.98;;
77955;SDS011;67152;36.266;32.294;2023-02-17T15:34:22;25.40;;;12.02;;
77955;SDS011;67152;36.266;32.294;2023-02-17T15:36:59;8.82;;;6.47;;
77955;SDS011;67152;36.266;32.294;2023-02-17T15:39:27;37.42;;;6.10;;
77955;SDS011;67152;36.266;32.294;2023-02-17T15:44:31;45.27;;;4.67;;
77955;SDS011;67152;36.266;32.294;2023-02-17T15:47:08;8.63;;;3.20;;
77955;SDS011;67152;36.266;32.294;2023-02-17T15:49:38;19.90;;;4.00;;
77955;SDS011;67152;36.266;32.294;2023-02-17T15:52:08;10.57;;;4.18;;
77955;SDS011;67152;36.266;32.294;2023-02-17T15:54:38;12.23;;;4.65;;
77955;SDS011;67152;36.266;32.294;2023-02-17T15:57:26;35.20;;;5.82;;
77955;SDS011;67152;36.266;32.294;2023-02-17T15:59:54;58.05;;;7.25;;
77955;SDS011;67152;36.266;32.294;2023-02-17T16:02:23;24.38;;;7.70;;
77955;SDS011;67152;36.266;32.294;2023-02-17T16:04:52;18.65;;;8.18;;
77955;SDS011;67152;36.266;32.294;2023-02-17T16:07:19;25.73;;;6.88;;
77955;SDS011;67152;36.266;32.294;2023-02-17T16:09:46;108.45;;;15.95;;
77955;SDS011;67152;36.266;32.294;2023-02-17T16:12:15;40.00;;;12.52;;
77955;SDS011;67152;36.266;32.294;2023-02-17T16:17:17;15.45;;;4.82;;
77955;SDS011;67152;36.266;32.294;2023-02-17T16:19:44;6.55;;;2.92;;
77955;SDS011;67152;36.266;32.294;2023-02-17T16:22:12;6.38;;;3.10;;
77955;SDS011;67152;36.266;32.294;2023-02-17T16:24:39;12.23;;;4.07;;
77955;SDS011;67152;36.266;32.294;2023-02-17T16:27:06;9.13;;;4.72;;
77955;SDS011;67152;36.266;32.294;2023-02-17T16:29:34;10.10;;;6.10;;
77955;SDS011;67152;36.266;32.294;2023-02-17T16:32:01;13.63;;;6.43;;
77955;SDS011;67152;36.266;32.294;2023-02-17T16:34:30;20.27;;;7.68;;
77955;SDS011;67152;36.266;32.294;2023-02-17T16:37:00;15.20;;;6.03;;
77955;SDS011;67152;36.266;32.294;2023-02-17T16:39:35;10.77;;;4.38;;
77955;SDS011;67152;36.266;32.294;2023-02-17T16:42:05;15.02;;;4.80;;
77955;SDS011;67152;36.266;32.294;2023-02-17T16:44:36;14.05;;;5.85;;
77955;SDS011;67152;36.266;32.294;2023-02-17T16:47:04;24.60;;;11.43;;
77955;SDS011;67152;36.266;32.294;2023-02-17T16:49:32;27.02;;;13.00;;
77955;SDS011;67152;36.266;32.294;2023-02-17T16:52:05;35.20;;;17.45;;
77955;SDS011;67152;36.266;32.294;2023-02-17T16:54:41;41.13;;;17.48;;
77955;SDS011;67152;36.266;32.294;2023-02-17T16:57:17;47.22;;;19.02;;
77955;SDS011;67152;36.266;32.294;2023-02-17T17:00:01;52.22;;;21.83;;
77955;SDS011;67152;36.266;32.294;2023-02-17T17:02:30;41.63;;;19.77;;
77955;SDS011;67152;36.266;32.294;2023-02-17T17:04:59;41.42;;;20.38;;
77955;SDS011;67152;36.266;32.294;2023-02-17T17:07:26;47.67;;;19.95;;
77955;SDS011;67152;36.266;32.294;2023-02-17T17:09:57;47.40;;;19.65;;
77955;SDS011;67152;36.266;32.294;2023-02-17T17:12:24;51.08;;;19.90;;
77955;SDS011;67152;36.266;32.294;2023-02-17T17:14:51;47.17;;;21.03;;
77955;SDS011;67152;36.266;32.294;2023-02-17T17:17:17;36.75;;;17.52;;